sensor_id;sensor_type;location;lat;lon;timestamp;P1;durP1;ratioP1;P2;durP2;ratioP2
48205;SDS011;33995;48.202;16.260;2023-04-01T00:00:47;1.40;;;1.10;;
48205;SDS011;33995;48.202;16.260;2023-04-01T00:03:19;2.13;;;1.30;;
48205;SDS011;33995;48.202;16.260;2023-04-01T00:05:48;1.53;;;1.03;;
48205;SDS011;33995;48.202;16.260;2023-04-01T00:08:17;1.20;;;1.03;;
48205;SDS011;33995;48.202;16.260;2023-04-01T00:10:44;1.80;;;1.00;;
48205;SDS011;33995;48.202;16.260;2023-04-01T00:13:12;1.37;;;1.07;;
48205;SDS011;33995;48.202;16.260;2023-04-01T00:15:39;1.37;;;0.90;;
48205;SDS011;33995;48.202;16.260;2023-04-01T00:18:07;2.47;;;1.10;;
48205;SDS011;33995;48.202;16.260;2023-04-01T00:20:35;1.63;;;1.30;;
48205;SDS011;33995;48.202;16.260;2023-04-01T00:23:02;2.07;;;1.13;;
48205;SDS011;33995;48.202;16.260;2023-04-01T00:25:31;1.50;;;1.13;;
48205;SDS011;33995;48.202;16.260;2023-04-01T00:28:00;1.83;;;1.17;;
48205;SDS011;33995;48.202;16.260;2023-04-01T00:30:29;1.40;;;1.20;;
48205;SDS011;33995;48.202;16.260;2023-04-01T00:32:59;1.47;;;0.93;;
48205;SDS011;33995;48.202;16.260;2023-04-01T00:35:26;2.53;;;0.80;;
48205;SDS011;33995;48.202;16.260;2023-04-01T00:37:53;1.50;;;1.00;;
48205;SDS011;33995;48.202;16.260;2023-04-01T00:42:56;1.60;;;1.00;;
48205;SDS011;33995;48.202;16.260;2023-04-01T00:47:54;1.20;;;0.90;;
48205;SDS011;33995;48.202;16.260;2023-04-01T00:50:24;1.93;;;1.00;;
48205;SDS011;33995;48.202;16.260;2023-04-01T00:52:55;1.70;;;1.00;;
48205;SDS011;33995;48.202;16.260;2023-04-01T00:55:23;1.73;;;1.10;;
48205;SDS011;33995;48.202;16.260;2023-04-01T00:57:52;1.60;;;1.13;;
48205;SDS011;33995;48.202;16.260;2023-04-01T01:00:22;1.90;;;1.10;;
48205;SDS011;33995;48.202;16.260;2023-04-01T01:02:49;2.43;;;1.00;;
48205;SDS011;33995;48.202;16.260;2023-04-01T01:05:19;1.43;;;1.00;;
48205;SDS011;33995;48.202;16.260;2023-04-01T01:08:03;1.40;;;1.00;;
48205;SDS011;33995;48.202;16.260;2023-04-01T01:10:47;2.07;;;1.00;;
48205;SDS011;33995;48.202;16.260;2023-04-01T01:16:26;2.80;;;1.40;;
48205;SDS011;33995;48.202;16.260;2023-04-01T01:32:31;2.70;;;1.10;;
48205;SDS011;33995;48.202;16.260;2023-04-01T01:37:49;1.20;;;0.80;;
48205;SDS011;33995;48.202;16.260;2023-04-01T01:40:21;1.50;;;0.97;;
48205;SDS011;33995;48.202;16.260;2023-04-01T01:42:50;1.63;;;0.90;;
48205;SDS011;33995;48.202;16.260;2023-04-01T01:45:21;1.43;;;0.80;;
48205;SDS011;33995;48.202;16.260;2023-04-01T01:47:52;1.03;;;0.70;;
48205;SDS011;33995;48.202;16.260;2023-04-01T01:50:22;1.73;;;0.93;;
48205;SDS011;33995;48.202;16.260;2023-04-01T01:53:00;2.83;;;0.97;;
48205;SDS011;33995;48.202;16.260;2023-04-01T01:55:35;2.47;;;1.00;;
48205;SDS011;33995;48.202;16.260;2023-04-01T02:00:57;2.30;;;1.20;;
48205;SDS011;33995;48.202;16.260;2023-04-01T02:03:28;2.03;;;1.20;;
48205;SDS011;33995;48.202;16.260;2023-04-01T02:05:58;2.47;;;1.00;;
48205;SDS011;33995;48.202;16.260;2023-04-01T02:08:30;2.00;;;1.00;;
48205;SDS011;33995;48.202;16.260;2023-04-01T02:11:20;1.87;;;0.97;;
48205;SDS011;33995;48.202;16.260;2023-04-01T02:14:01;3.20;;;1.30;;
48205;SDS011;33995;48.202;16.260;2023-04-01T02:16:55;2.30;;;1.17;;
48205;SDS011;33995;48.202;16.260;2023-04-01T02:19:26;2.00;;;0.80;;
48205;SDS011;33995;48.202;16.260;2023-04-01T02:22:01;1.63;;;0.97;;
48205;SDS011;33995;48.202;16.260;2023-04-01T02:24:32;2.43;;;1.03;;
48205;SDS011;33995;48.202;16.260;2023-04-01T02:27:03;2.63;;;0.90;;
48205;SDS011;33995;48.202;16.260;2023-04-01T02:29:31;1.80;;;0.90;;
48205;SDS011;33995;48.202;16.260;2023-04-01T02:31:58;3.37;;;1.30;;
48205;SDS011;33995;48.202;16.260;2023-04-01T02:34:27;1.90;;;1.10;;
48205;SDS011;33995;48.202;16.260;2023-04-01T02:36:54;1.70;;;1.00;;
48205;SDS011;33995;48.202;16.260;2023-04-01T02:39:22;2.03;;;0.90;;
48205;SDS011;33995;48.202;16.260;2023-04-01T02:41:52;3.57;;;1.20;;
48205;SDS011;33995;48.202;16.260;2023-04-01T02:44:19;2.57;;;1.20;;
48205;SDS011;33995;48.202;16.260;2023-04-01T02:46:46;2.23;;;1.20;;
48205;SDS011;33995;48.202;16.260;2023-04-01T02:49:14;2.13;;;1.10;;
48205;SDS011;33995;48.202;16.260;2023-04-01T02:51:41;2.53;;;1.07;;
48205;SDS011;33995;48.202;16.260;2023-04-01T02:54:08;1.70;;;1.07;;
48205;SDS011;33995;48.202;16.260;2023-04-01T02:56:36;1.70;;;0.90;;
48205;SDS011;33995;48.202;16.260;2023-04-01T02:59:03;3.67;;;1.13;;
48205;SDS011;33995;48.202;16.260;2023-04-01T03:01:31;2.10;;;0.90;;
48205;SDS011;33995;48.202;16.260;2023-04-01T03:03:58;3.47;;;1.10;;
48205;SDS011;33995;48.202;16.260;2023-04-01T03:06:25;2.17;;;1.00;;
48205;SDS011;33995;48.202;16.260;2023-04-01T03:08:52;2.53;;;0.93;;
48205;SDS011;33995;48.202;16.260;2023-04-01T03:11:20;1.93;;;1.07;;
48205;SDS011;33995;48.202;16.260;2023-04-01T03:13:49;3.23;;;1.20;;
48205;SDS011;33995;48.202;16.260;2023-04-01T03:16:16;2.40;;;1.17;;
48205;SDS011;33995;48.202;16.260;2023-04-01T03:18:43;1.70;;;1.10;;
48205;SDS011;33995;48.202;16.260;2023-04-01T03:21:12;1.83;;;1.00;;
48205;SDS011;33995;48.202;16.260;2023-04-01T03:23:44;5.43;;;1.40;;
48205;SDS011;33995;48.202;16.260;2023-04-01T03:26:11;1.80;;;0.97;;
48205;SDS011;33995;48.202;16.260;2023-04-01T03:28:38;1.43;;;1.00;;
48205;SDS011;33995;48.202;16.260;2023-04-01T03:31:06;2.07;;;0.93;;
48205;SDS011;33995;48.202;16.260;2023-04-01T03:33:41;3.40;;;1.30;;
48205;SDS011;33995;48.202;16.260;2023-04-01T03:36:08;2.63;;;1.10;;
48205;SDS011;33995;48.202;16.260;2023-04-01T03:38:39;1.30;;;1.10;;
48205;SDS011;33995;48.202;16.260;2023-04-01T03:41:11;2.03;;;1.20;;
48205;SDS011;33995;48.202;16.260;2023-04-01T03:43:43;2.27;;;1.10;;
48205;SDS011;33995;48.202;16.260;2023-04-01T03:46:11;2.17;;;0.90;;
48205;SDS011;33995;48.202;16.260;2023-04-01T03:48:38;2.07;;;1.07;;
48205;SDS011;33995;48.202;16.260;2023-04-01T03:51:09;2.03;;;1.10;;
48205;SDS011;33995;48.202;16.260;2023-04-01T03:53:36;2.03;;;0.90;;
48205;SDS011;33995;48.202;16.260;2023-04-01T03:56:05;2.50;;;1.10;;
48205;SDS011;33995;48.202;16.260;2023-04-01T03:58:35;2.70;;;1.10;;
48205;SDS011;33995;48.202;16.260;2023-04-01T04:01:12;2.37;;;1.33;;
48205;SDS011;33995;48.202;16.260;2023-04-01T04:03:53;2.27;;;1.07;;
48205;SDS011;33995;48.202;16.260;2023-04-01T04:06:22;3.63;;;1.30;;
48205;SDS011;33995;48.202;16.260;2023-04-01T04:08:51;2.50;;;1.30;;
48205;SDS011;33995;48.202;16.260;2023-04-01T04:11:20;1.90;;;0.90;;
48205;SDS011;33995;48.202;16.260;2023-04-01T04:13:50;2.37;;;1.00;;
48205;SDS011;33995;48.202;16.260;2023-04-01T04:16:20;1.33;;;0.93;;
48205;SDS011;33995;48.202;16.260;2023-04-01T04:18:53;1.50;;;1.00;;
48205;SDS011;33995;48.202;16.260;2023-04-01T04:21:20;2.10;;;0.80;;
48205;SDS011;33995;48.202;16.260;2023-04-01T04:23:47;1.70;;;0.90;;
48205;SDS011;33995;48.202;16.260;2023-04-01T04:26:17;1.20;;;0.90;;
48205;SDS011;33995;48.202;16.260;2023-04-01T04:28:54;2.70;;;1.30;;
48205;SDS011;33995;48.202;16.260;2023-04-01T04:31:23;3.23;;;1.40;;
48205;SDS011;33995;48.202;16.260;2023-04-01T04:33:53;4.00;;;2.30;;
48205;SDS011;33995;48.202;16.260;2023-04-01T04:36:21;3.00;;;2.00;;
48205;SDS011;33995;48.202;16.260;2023-04-01T04:38:50;4.50;;;1.90;;
48205;SDS011;33995;48.202;16.260;2023-04-01T04:41:18;2.67;;;1.80;;
48205;SDS011;33995;48.202;16.260;2023-04-01T04:43:53;2.40;;;1.40;;
48205;SDS011;33995;48.202;16.260;2023-04-01T04:46:24;2.90;;;1.27;;
48205;SDS011;33995;48.202;16.260;2023-04-01T04:49:08;1.87;;;1.00;;
48205;SDS011;33995;48.202;16.260;2023-04-01T04:51:37;2.20;;;1.03;;
48205;SDS011;33995;48.202;16.260;2023-04-01T04:54:04;1.63;;;1.10;;
48205;SDS011;33995;48.202;16.260;2023-04-01T04:56:54;1.40;;;1.00;;
48205;SDS011;33995;48.202;16.260;2023-04-01T04:59:23;2.07;;;0.90;;
48205;SDS011;33995;48.202;16.260;2023-04-01T05:02:08;2.03;;;0.90;;
48205;SDS011;33995;48.202;16.260;2023-04-01T05:04:35;1.27;;;0.80;;
48205;SDS011;33995;48.202;16.260;2023-04-01T05:07:04;1.53;;;0.80;;
48205;SDS011;33995;48.202;16.260;2023-04-01T05:09:32;1.33;;;0.73;;
48205;SDS011;33995;48.202;16.260;2023-04-01T05:12:01;2.40;;;1.00;;
48205;SDS011;33995;48.202;16.260;2023-04-01T05:14:40;2.17;;;0.70;;
48205;SDS011;33995;48.202;16.260;2023-04-01T05:17:10;2.00;;;0.90;;
48205;SDS011;33995;48.202;16.260;2023-04-01T05:19:38;1.23;;;0.77;;
48205;SDS011;33995;48.202;16.260;2023-04-01T05:22:08;2.80;;;0.80;;
48205;SDS011;33995;48.202;16.260;2023-04-01T05:24:36;1.30;;;0.80;;
48205;SDS011;33995;48.202;16.260;2023-04-01T05:27:03;2.03;;;1.10;;
48205;SDS011;33995;48.202;16.260;2023-04-01T05:29:34;1.97;;;0.90;;
48205;SDS011;33995;48.202;16.260;2023-04-01T05:32:06;1.07;;;0.80;;
48205;SDS011;33995;48.202;16.260;2023-04-01T05:34:33;1.97;;;1.00;;
48205;SDS011;33995;48.202;16.260;2023-04-01T05:37:00;2.10;;;0.87;;
48205;SDS011;33995;48.202;16.260;2023-04-01T05:39:36;1.40;;;0.70;;
48205;SDS011;33995;48.202;16.260;2023-04-01T05:42:07;2.40;;;1.00;;
48205;SDS011;33995;48.202;16.260;2023-04-01T05:44:35;1.73;;;0.80;;
48205;SDS011;33995;48.202;16.260;2023-04-01T05:47:25;1.10;;;0.70;;
48205;SDS011;33995;48.202;16.260;2023-04-01T05:49:52;1.83;;;0.90;;
48205;SDS011;33995;48.202;16.260;2023-04-01T05:52:19;1.87;;;0.90;;
48205;SDS011;33995;48.202;16.260;2023-04-01T05:54:46;2.17;;;1.20;;
48205;SDS011;33995;48.202;16.260;2023-04-01T05:57:17;1.73;;;1.00;;
48205;SDS011;33995;48.202;16.260;2023-04-01T05:59:45;1.57;;;0.80;;
48205;SDS011;33995;48.202;16.260;2023-04-01T06:02:12;1.60;;;0.83;;
48205;SDS011;33995;48.202;16.260;2023-04-01T06:04:45;1.07;;;0.70;;
48205;SDS011;33995;48.202;16.260;2023-04-01T06:07:13;1.70;;;0.90;;
48205;SDS011;33995;48.202;16.260;2023-04-01T06:09:42;1.73;;;0.80;;
48205;SDS011;33995;48.202;16.260;2023-04-01T06:43:24;2.27;;;1.10;;
48205;SDS011;33995;48.202;16.260;2023-04-01T06:49:47;1.57;;;0.90;;
48205;SDS011;33995;48.202;16.260;2023-04-01T06:52:55;2.63;;;1.03;;
48205;SDS011;33995;48.202;16.260;2023-04-01T06:55:47;2.47;;;0.90;;
48205;SDS011;33995;48.202;16.260;2023-04-01T06:58:51;1.83;;;1.00;;
48205;SDS011;33995;48.202;16.260;2023-04-01T07:04:15;1.47;;;0.90;;
48205;SDS011;33995;48.202;16.260;2023-04-01T07:06:56;1.73;;;1.07;;
48205;SDS011;33995;48.202;16.260;2023-04-01T07:09:27;1.73;;;1.10;;
48205;SDS011;33995;48.202;16.260;2023-04-01T07:12:46;2.63;;;1.00;;
48205;SDS011;33995;48.202;16.260;2023-04-01T07:18:45;2.97;;;1.27;;
48205;SDS011;33995;48.202;16.260;2023-04-01T07:21:27;1.80;;;1.20;;
48205;SDS011;33995;48.202;16.260;2023-04-01T07:24:13;1.77;;;1.10;;
48205;SDS011;33995;48.202;16.260;2023-04-01T07:27:00;2.67;;;1.60;;
48205;SDS011;33995;48.202;16.260;2023-04-01T07:29:30;2.03;;;1.40;;
48205;SDS011;33995;48.202;16.260;2023-04-01T07:42:42;1.90;;;1.30;;
48205;SDS011;33995;48.202;16.260;2023-04-01T07:56:17;1.30;;;1.20;;
48205;SDS011;33995;48.202;16.260;2023-04-01T08:02:29;1.27;;;1.10;;
48205;SDS011;33995;48.202;16.260;2023-04-01T08:07:28;1.47;;;1.10;;
48205;SDS011;33995;48.202;16.260;2023-04-01T08:13:48;1.63;;;0.90;;
48205;SDS011;33995;48.202;16.260;2023-04-01T08:16:56;1.63;;;1.10;;
48205;SDS011;33995;48.202;16.260;2023-04-01T08:19:45;1.10;;;1.00;;
48205;SDS011;33995;48.202;16.260;2023-04-01T08:22:35;2.77;;;1.30;;
48205;SDS011;33995;48.202;16.260;2023-04-01T08:25:20;3.23;;;1.30;;
48205;SDS011;33995;48.202;16.260;2023-04-01T08:27:53;4.23;;;1.40;;
48205;SDS011;33995;48.202;16.260;2023-04-01T08:30:28;1.33;;;1.20;;
48205;SDS011;33995;48.202;16.260;2023-04-01T08:33:00;1.30;;;1.20;;
48205;SDS011;33995;48.202;16.260;2023-04-01T08:36:24;2.27;;;1.17;;
48205;SDS011;33995;48.202;16.260;2023-04-01T08:39:06;1.20;;;1.10;;
48205;SDS011;33995;48.202;16.260;2023-04-01T09:04:49;1.00;;;0.80;;
48205;SDS011;33995;48.202;16.260;2023-04-01T09:20:07;1.70;;;0.90;;
48205;SDS011;33995;48.202;16.260;2023-04-01T09:23:15;0.90;;;0.80;;
48205;SDS011;33995;48.202;16.260;2023-04-01T09:37:35;1.70;;;0.80;;
48205;SDS011;33995;48.202;16.260;2023-04-01T09:40:25;2.03;;;1.10;;
48205;SDS011;33995;48.202;16.260;2023-04-01T09:43:31;1.47;;;0.80;;
48205;SDS011;33995;48.202;16.260;2023-04-01T09:52:07;0.80;;;0.80;;
48205;SDS011;33995;48.202;16.260;2023-04-01T09:54:44;0.93;;;0.70;;
48205;SDS011;33995;48.202;16.260;2023-04-01T10:34:10;2.00;;;1.30;;
48205;SDS011;33995;48.202;16.260;2023-04-01T10:40:19;2.47;;;2.27;;
48205;SDS011;33995;48.202;16.260;2023-04-01T10:55:14;2.97;;;2.40;;
48205;SDS011;33995;48.202;16.260;2023-04-01T11:23:47;1.20;;;1.10;;
48205;SDS011;33995;48.202;16.260;2023-04-01T11:26:56;1.17;;;1.10;;
48205;SDS011;33995;48.202;16.260;2023-04-01T11:30:03;1.40;;;1.30;;
48205;SDS011;33995;48.202;16.260;2023-04-01T11:35:40;1.03;;;0.80;;
48205;SDS011;33995;48.202;16.260;2023-04-01T11:41:43;0.77;;;0.50;;
48205;SDS011;33995;48.202;16.260;2023-04-01T11:44:55;0.97;;;0.60;;
48205;SDS011;33995;48.202;16.260;2023-04-01T11:55:26;0.77;;;0.70;;
48205;SDS011;33995;48.202;16.260;2023-04-01T11:58:22;1.57;;;0.63;;
48205;SDS011;33995;48.202;16.260;2023-04-01T12:10:19;0.50;;;0.50;;
48205;SDS011;33995;48.202;16.260;2023-04-01T12:12:41;0.53;;;0.50;;
48205;SDS011;33995;48.202;16.260;2023-04-01T12:37:58;3.77;;;1.87;;
48205;SDS011;33995;48.202;16.260;2023-04-01T12:55:08;2.27;;;1.80;;
48205;SDS011;33995;48.202;16.260;2023-04-01T13:03:24;1.97;;;0.90;;
48205;SDS011;33995;48.202;16.260;2023-04-01T13:12:52;1.00;;;0.80;;
48205;SDS011;33995;48.202;16.260;2023-04-01T13:18:40;1.50;;;0.87;;
48205;SDS011;33995;48.202;16.260;2023-04-01T13:21:44;3.47;;;1.90;;
48205;SDS011;33995;48.202;16.260;2023-04-01T13:25:15;3.80;;;3.20;;
48205;SDS011;33995;48.202;16.260;2023-04-01T13:27:24;3.30;;;2.60;;
48205;SDS011;33995;48.202;16.260;2023-04-01T13:44:44;1.40;;;1.30;;
48205;SDS011;33995;48.202;16.260;2023-04-01T13:53:18;1.63;;;1.40;;
48205;SDS011;33995;48.202;16.260;2023-04-01T13:56:00;1.20;;;1.00;;
48205;SDS011;33995;48.202;16.260;2023-04-01T14:18:39;1.07;;;0.80;;
48205;SDS011;33995;48.202;16.260;2023-04-01T14:26:57;2.17;;;0.93;;
48205;SDS011;33995;48.202;16.260;2023-04-01T14:47:27;1.20;;;1.10;;
48205;SDS011;33995;48.202;16.260;2023-04-01T14:50:14;1.40;;;1.30;;
48205;SDS011;33995;48.202;16.260;2023-04-01T14:52:46;2.40;;;1.20;;
48205;SDS011;33995;48.202;16.260;2023-04-01T14:58:16;1.93;;;1.10;;
48205;SDS011;33995;48.202;16.260;2023-04-01T15:06:40;3.20;;;2.50;;
48205;SDS011;33995;48.202;16.260;2023-04-01T15:17:51;2.63;;;1.90;;
48205;SDS011;33995;48.202;16.260;2023-04-01T15:23:42;3.30;;;2.73;;
48205;SDS011;33995;48.202;16.260;2023-04-01T15:26:33;2.37;;;2.17;;
48205;SDS011;33995;48.202;16.260;2023-04-01T15:31:54;2.30;;;2.10;;
48205;SDS011;33995;48.202;16.260;2023-04-01T15:40:06;2.00;;;1.47;;
48205;SDS011;33995;48.202;16.260;2023-04-01T15:42:45;1.60;;;1.07;;
48205;SDS011;33995;48.202;16.260;2023-04-01T15:45:39;2.83;;;1.30;;
48205;SDS011;33995;48.202;16.260;2023-04-01T16:18:58;0.93;;;0.93;;
48205;SDS011;33995;48.202;16.260;2023-04-01T16:21:35;0.80;;;0.80;;
48205;SDS011;33995;48.202;16.260;2023-04-01T16:30:03;0.80;;;0.70;;
48205;SDS011;33995;48.202;16.260;2023-04-01T16:36:34;1.23;;;1.13;;
48205;SDS011;33995;48.202;16.260;2023-04-01T16:41:38;1.23;;;1.13;;
48205;SDS011;33995;48.202;16.260;2023-04-01T16:44:22;1.00;;;0.90;;
48205;SDS011;33995;48.202;16.260;2023-04-01T16:46:54;0.93;;;0.83;;
48205;SDS011;33995;48.202;16.260;2023-04-01T16:49:30;0.60;;;0.60;;
48205;SDS011;33995;48.202;16.260;2023-04-01T16:54:36;0.80;;;0.57;;
48205;SDS011;33995;48.202;16.260;2023-04-01T17:00:17;0.70;;;0.40;;
48205;SDS011;33995;48.202;16.260;2023-04-01T17:03:20;0.73;;;0.73;;
48205;SDS011;33995;48.202;16.260;2023-04-01T17:12:21;0.70;;;0.70;;
48205;SDS011;33995;48.202;16.260;2023-04-01T17:14:40;0.97;;;0.60;;
48205;SDS011;33995;48.202;16.260;2023-04-01T17:20:13;1.13;;;0.90;;
48205;SDS011;33995;48.202;16.260;2023-04-01T17:23:05;1.10;;;1.00;;
48205;SDS011;33995;48.202;16.260;2023-04-01T17:29:12;1.20;;;1.10;;
48205;SDS011;33995;48.202;16.260;2023-04-01T17:45:49;1.67;;;1.13;;
48205;SDS011;33995;48.202;16.260;2023-04-01T17:48:36;1.30;;;1.20;;
48205;SDS011;33995;48.202;16.260;2023-04-01T17:59:48;1.30;;;1.20;;
48205;SDS011;33995;48.202;16.260;2023-04-01T18:09:11;1.20;;;1.10;;
48205;SDS011;33995;48.202;16.260;2023-04-01T18:11:44;1.77;;;1.63;;
48205;SDS011;33995;48.202;16.260;2023-04-01T18:15:00;2.43;;;2.03;;
48205;SDS011;33995;48.202;16.260;2023-04-01T18:23:51;2.10;;;1.90;;
48205;SDS011;33995;48.202;16.260;2023-04-01T18:26:31;1.70;;;1.60;;
48205;SDS011;33995;48.202;16.260;2023-04-01T18:29:11;1.60;;;1.50;;
48205;SDS011;33995;48.202;16.260;2023-04-01T18:31:42;1.80;;;1.70;;
48205;SDS011;33995;48.202;16.260;2023-04-01T18:34:17;1.60;;;1.50;;
48205;SDS011;33995;48.202;16.260;2023-04-01T18:37:14;1.73;;;1.63;;
48205;SDS011;33995;48.202;16.260;2023-04-01T18:39:53;1.67;;;1.57;;
48205;SDS011;33995;48.202;16.260;2023-04-01T18:42:50;1.47;;;1.37;;
48205;SDS011;33995;48.202;16.260;2023-04-01T18:54:20;1.40;;;1.30;;
48205;SDS011;33995;48.202;16.260;2023-04-01T18:56:58;1.47;;;1.37;;
48205;SDS011;33995;48.202;16.260;2023-04-01T19:00:02;1.30;;;1.20;;
48205;SDS011;33995;48.202;16.260;2023-04-01T19:02:36;1.20;;;1.10;;
48205;SDS011;33995;48.202;16.260;2023-04-01T19:05:17;1.03;;;1.03;;
48205;SDS011;33995;48.202;16.260;2023-04-01T19:07:52;1.47;;;1.30;;
48205;SDS011;33995;48.202;16.260;2023-04-01T19:18:39;0.80;;;0.80;;
48205;SDS011;33995;48.202;16.260;2023-04-01T19:21:19;1.13;;;0.83;;
48205;SDS011;33995;48.202;16.260;2023-04-01T19:24:15;1.00;;;0.90;;
48205;SDS011;33995;48.202;16.260;2023-04-01T19:29:31;0.50;;;0.50;;
48205;SDS011;33995;48.202;16.260;2023-04-01T19:41:24;0.50;;;0.50;;
48205;SDS011;33995;48.202;16.260;2023-04-01T19:47:24;0.50;;;0.50;;
48205;SDS011;33995;48.202;16.260;2023-04-01T19:53:16;0.43;;;0.43;;
48205;SDS011;33995;48.202;16.260;2023-04-01T19:58:51;0.47;;;0.47;;
48205;SDS011;33995;48.202;16.260;2023-04-01T20:01:34;0.47;;;0.40;;
48205;SDS011;33995;48.202;16.260;2023-04-01T20:07:07;0.80;;;0.50;;
48205;SDS011;33995;48.202;16.260;2023-04-01T20:12:49;0.77;;;0.50;;
48205;SDS011;33995;48.202;16.260;2023-04-01T20:15:35;1.67;;;0.80;;
48205;SDS011;33995;48.202;16.260;2023-04-01T20:21:22;0.87;;;0.80;;
48205;SDS011;33995;48.202;16.260;2023-04-01T20:24:00;0.67;;;0.67;;
48205;SDS011;33995;48.202;16.260;2023-04-01T20:26:35;0.80;;;0.80;;
48205;SDS011;33995;48.202;16.260;2023-04-01T20:32:05;0.50;;;0.50;;
48205;SDS011;33995;48.202;16.260;2023-04-01T20:37:20;0.87;;;0.60;;
48205;SDS011;33995;48.202;16.260;2023-04-01T20:42:47;0.77;;;0.77;;
48205;SDS011;33995;48.202;16.260;2023-04-01T20:45:30;0.70;;;0.70;;
48205;SDS011;33995;48.202;16.260;2023-04-01T20:50:37;0.70;;;0.70;;
48205;SDS011;33995;48.202;16.260;2023-04-01T21:05:06;0.47;;;0.47;;
48205;SDS011;33995;48.202;16.260;2023-04-01T21:07:58;0.70;;;0.63;;
48205;SDS011;33995;48.202;16.260;2023-04-01T21:16:08;0.70;;;0.63;;
48205;SDS011;33995;48.202;16.260;2023-04-01T21:18:57;0.50;;;0.40;;
48205;SDS011;33995;48.202;16.260;2023-04-01T21:27:26;0.50;;;0.50;;
48205;SDS011;33995;48.202;16.260;2023-04-01T21:51:45;0.67;;;0.60;;
48205;SDS011;33995;48.202;16.260;2023-04-01T21:54:45;0.70;;;0.60;;
48205;SDS011;33995;48.202;16.260;2023-04-01T22:08:33;2.07;;;0.57;;
48205;SDS011;33995;48.202;16.260;2023-04-01T22:16:39;0.40;;;0.40;;
48205;SDS011;33995;48.202;16.260;2023-04-01T22:19:20;0.90;;;0.50;;
48205;SDS011;33995;48.202;16.260;2023-04-01T22:24:37;0.60;;;0.40;;
48205;SDS011;33995;48.202;16.260;2023-04-01T22:27:37;0.50;;;0.50;;
48205;SDS011;33995;48.202;16.260;2023-04-01T22:30:20;0.40;;;0.40;;
48205;SDS011;33995;48.202;16.260;2023-04-01T22:32:57;0.97;;;0.50;;
48205;SDS011;33995;48.202;16.260;2023-04-01T22:43:43;0.93;;;0.60;;
48205;SDS011;33995;48.202;16.260;2023-04-01T22:46:15;0.50;;;0.30;;
48205;SDS011;33995;48.202;16.260;2023-04-01T22:49:18;0.40;;;0.40;;
48205;SDS011;33995;48.202;16.260;2023-04-01T22:52:05;0.73;;;0.63;;
48205;SDS011;33995;48.202;16.260;2023-04-01T22:54:55;0.60;;;0.50;;
48205;SDS011;33995;48.202;16.260;2023-04-01T22:57:47;0.80;;;0.70;;
48205;SDS011;33995;48.202;16.260;2023-04-01T23:00:36;1.00;;;0.67;;
48205;SDS011;33995;48.202;16.260;2023-04-01T23:03:11;0.57;;;0.47;;
48205;SDS011;33995;48.202;16.260;2023-04-01T23:05:49;1.00;;;0.67;;
48205;SDS011;33995;48.202;16.260;2023-04-01T23:11:19;0.40;;;0.40;;
48205;SDS011;33995;48.202;16.260;2023-04-01T23:27:59;0.40;;;0.33;;
48205;SDS011;33995;48.202;16.260;2023-04-01T23:30:46;0.40;;;0.40;;
48205;SDS011;33995;48.202;16.260;2023-04-01T23:38:16;0.37;;;0.37;;
48205;SDS011;33995;48.202;16.260;2023-04-01T23:40:46;0.50;;;0.30;;
48205;SDS011;33995;48.202;16.260;2023-04-01T23:43:21;0.40;;;0.40;;
48205;SDS011;33995;48.202;16.260;2023-04-01T23:45:55;0.40;;;0.40;;
48205;SDS011;33995;48.202;16.260;2023-04-01T23:48:30;0.60;;;0.40;;
48205;SDS011;33995;48.202;16.260;2023-04-01T23:51:00;0.30;;;0.30;;
48205;SDS011;33995;48.202;16.260;2023-04-01T23:53:29;0.47;;;0.40;;
48205;SDS011;33995;48.202;16.260;2023-04-01T23:56:00;0.50;;;0.50;;
48205;SDS011;33995;48.202;16.260;2023-04-01T23:58:41;0.63;;;0.50;;
